Time;durP1;ratioP1;P1;durP2;ratioP2;P2;SDS_P1;SDS_P2;PMS_P1;PMS_P2;Temp;Humidity;BMP_temperature;BMP_pressure;BME280_temperature;BME280_humidity;BME280_pressure;Samples;Min_cycle;Max_cycle;Signal;HPM_P1;HPM_P2
2023/07/26 00:00:29;;;;;;;;;;;20.20;72.60;;;;;;4169774;28;19932;-49
2023/07/26 00:03:12;;;;;;;;;;;20.20;72.70;;;;;;4171485;28;19931;-50
2023/07/26 00:05:52;;;;;;;;;;;20.20;72.70;;;;;;4170163;28;20038;-47
2023/07/26 00:08:33;;;;;;;;;;;20.20;72.70;;;;;;4170899;28;19935;-49
2023/07/26 00:11:13;;;;;;;;;;;20.20;72.80;;;;;;4155308;28;20055;-51
2023/07/26 00:13:54;;;;;;;;;;;20.20;72.80;;;;;;4157726;28;20059;-52
2023/07/26 00:16:35;;;;;;;;;;;20.20;72.90;;;;;;4155108;28;19931;-49
2023/07/26 00:19:19;;;;;;;;;;;20.20;72.90;;;;;;4161984;28;20067;-49
2023/07/26 00:22:00;;;;;;;;;;;20.20;73.00;;;;;;4142480;28;20005;-53
2023/07/26 00:24:41;;;;;;;;;;;20.20;73.00;;;;;;4154479;28;19986;-52
2023/07/26 00:27:22;;;;;;;;;;;20.20;73.00;;;;;;4171196;28;19935;-49
2023/07/26 00:30:05;;;;;;;;;;;20.20;73.10;;;;;;4176559;28;20336;-53
2023/07/26 00:32:46;;;;;;;;;;;20.20;73.10;;;;;;4155356;28;19932;-50
2023/07/26 00:35:28;;;;;;;;;;;20.20;73.10;;;;;;4161025;28;19935;-51
2023/07/26 00:38:09;;;;;;;;;;;20.10;73.10;;;;;;4141779;28;20288;-52
2023/07/26 00:40:50;;;;;;;;;;;20.10;73.20;;;;;;4187578;28;20009;-50
2023/07/26 00:43:31;;;;;;;;;;;20.20;73.20;;;;;;4185833;28;19931;-53
2023/07/26 00:46:12;;;;;;;;;;;20.10;73.20;;;;;;4186941;28;20073;-52
2023/07/26 00:48:53;;;;;;;;;;;20.10;73.30;;;;;;4187202;28;20258;-52
2023/07/26 00:51:35;;;;;;;;;;;20.10;74.20;;;;;;4182922;28;19931;-51
2023/07/26 00:54:20;;;;;;;;;;;20.10;73.40;;;;;;4170407;28;20022;-51
2023/07/26 00:57:01;;;;;;;;;;;20.10;73.40;;;;;;4186173;28;19931;-52
2023/07/26 00:59:42;;;;;;;;;;;20.10;73.50;;;;;;4186393;28;19931;-52
2023/07/26 01:02:24;;;;;;;;;;;20.10;73.50;;;;;;4186542;28;20397;-52
2023/07/26 01:05:06;;;;;;;;;;;20.00;73.50;;;;;;4186548;28;19935;-52
2023/07/26 01:07:53;;;;;;;;;;;20.10;73.60;;;;;;4169807;28;19940;-52
2023/07/26 01:10:38;;;;;;;;;;;20.00;73.50;;;;;;4158221;28;20038;-50
2023/07/26 01:13:22;;;;;;;;;;;20.00;73.50;;;;;;4187553;28;19948;-51
2023/07/26 01:16:03;;;;;;;;;;;20.00;73.50;;;;;;4187016;28;20423;-49
2023/07/26 01:18:44;;;;;;;;;;;20.00;73.60;;;;;;4175107;28;19940;-48
2023/07/26 01:21:25;;;;;;;;;;;20.00;73.70;;;;;;4169685;28;19975;-53
2023/07/26 01:24:07;;;;;;;;;;;20.00;73.70;;;;;;4168904;28;20303;-50
2023/07/26 01:26:48;;;;;;;;;;;20.00;73.80;;;;;;4160334;28;20033;-52
2023/07/26 01:29:29;;;;;;;;;;;20.00;73.80;;;;;;4157244;28;19932;-51
2023/07/26 01:32:13;;;;;;;;;;;20.00;73.80;;;;;;4172382;28;19932;-49
2023/07/26 01:34:54;;;;;;;;;;;20.00;73.80;;;;;;4170585;28;19936;-51
2023/07/26 01:37:36;;;;;;;;;;;20.00;73.90;;;;;;4170107;28;19936;-53
2023/07/26 01:40:20;;;;;;;;;;;20.00;74.00;;;;;;4166640;28;20403;-53
2023/07/26 01:43:01;;;;;;;;;;;20.00;74.00;;;;;;4170638;28;19932;-53
2023/07/26 01:45:43;;;;;;;;;;;20.00;74.90;;;;;;4158251;28;20414;-54
2023/07/26 01:48:23;;;;;;;;;;;20.00;74.10;;;;;;4169974;28;19936;-53
2023/07/26 01:51:04;;;;;;;;;;;20.00;74.10;;;;;;4182038;28;20054;-53
2023/07/26 01:53:45;;;;;;;;;;;20.00;74.10;;;;;;4187110;28;20462;-53
2023/07/26 01:56:27;;;;;;;;;;;20.00;74.20;;;;;;4186570;28;19951;-52
2023/07/26 01:59:08;;;;;;;;;;;20.00;74.20;;;;;;4152605;28;19974;-49
2023/07/26 02:01:49;;;;;;;;;;;20.00;74.20;;;;;;4152570;28;19935;-52
2023/07/26 02:04:30;;;;;;;;;;;19.90;74.20;;;;;;4164048;28;19961;-54
2023/07/26 02:07:11;;;;;;;;;;;20.00;74.30;;;;;;4171070;28;19936;-54
2023/07/26 02:09:51;;;;;;;;;;;20.00;74.40;;;;;;4183071;28;19932;-54
2023/07/26 02:12:33;;;;;;;;;;;20.00;74.40;;;;;;4160311;28;20014;-55
2023/07/26 02:15:14;;;;;;;;;;;19.90;74.40;;;;;;4172409;28;20380;-54
2023/07/26 02:17:55;;;;;;;;;;;19.90;74.50;;;;;;4163510;28;19951;-54
2023/07/26 02:20:36;;;;;;;;;;;19.90;74.50;;;;;;4172663;28;20283;-53
2023/07/26 02:23:17;;;;;;;;;;;19.90;74.60;;;;;;4156439;28;20052;-53
2023/07/26 02:25:58;;;;;;;;;;;19.90;74.60;;;;;;4155236;28;19947;-55
2023/07/26 02:28:40;;;;;;;;;;;19.90;74.60;;;;;;4155732;28;19932;-55
2023/07/26 02:31:22;;;;;;;;;;;19.90;75.40;;;;;;4166028;28;19936;-55
2023/07/26 02:34:02;;;;;;;;;;;19.90;74.50;;;;;;4144075;28;20001;-53
2023/07/26 02:36:43;;;;;;;;;;;19.90;74.60;;;;;;4155602;28;19933;-53
2023/07/26 02:39:24;;;;;;;;;;;19.80;74.60;;;;;;4176608;28;19935;-56
2023/07/26 02:42:05;;;;;;;;;;;19.90;74.70;;;;;;4164398;28;19932;-49
2023/07/26 02:44:48;;;;;;;;;;;19.80;74.70;;;;;;4189106;28;20025;-50
2023/07/26 02:47:32;;;;;;;;;;;19.80;74.70;;;;;;4175144;28;20399;-49
2023/07/26 02:50:12;;;;;;;;;;;19.80;74.80;;;;;;4171915;28;20067;-47
2023/07/26 02:52:53;;;;;;;;;;;19.80;74.80;;;;;;4159739;28;19932;-47
2023/07/26 02:55:34;;;;;;;;;;;19.80;74.80;;;;;;4171380;28;19940;-48
2023/07/26 02:58:15;;;;;;;;;;;19.80;74.90;;;;;;4171620;28;19935;-44
2023/07/26 03:00:58;;;;;;;;;;;19.80;74.90;;;;;;4171881;28;19954;-45
2023/07/26 03:03:39;;;;;;;;;;;19.80;75.00;;;;;;4155651;28;20284;-49
2023/07/26 03:06:19;;;;;;;;;;;19.80;75.00;;;;;;4159729;28;19967;-47
2023/07/26 03:09:00;;;;;;;;;;;19.80;75.00;;;;;;4170745;28;19939;-47
2023/07/26 03:11:41;;;;;;;;;;;19.80;75.00;;;;;;4171803;28;20075;-48
2023/07/26 03:14:22;;;;;;;;;;;19.80;75.00;;;;;;4187855;28;19935;-45
2023/07/26 03:17:04;;;;;;;;;;;19.80;75.10;;;;;;4178469;28;19936;-48
2023/07/26 03:19:52;;;;;;;;;;;19.80;76.00;;;;;;4171276;28;19951;-48
2023/07/26 03:22:32;;;;;;;;;;;19.80;75.20;;;;;;4169858;28;19931;-48
2023/07/26 03:25:14;;;;;;;;;;;19.80;75.20;;;;;;4170816;28;19944;-44
2023/07/26 03:27:55;;;;;;;;;;;19.80;75.20;;;;;;4172125;28;19935;-48
2023/07/26 03:30:36;;;;;;;;;;;19.70;75.10;;;;;;4146246;28;19932;-48
2023/07/26 03:33:18;;;;;;;;;;;19.70;75.10;;;;;;4155089;28;20375;-49
2023/07/26 03:35:59;;;;;;;;;;;19.70;75.10;;;;;;4156059;28;19932;-46
2023/07/26 03:38:39;;;;;;;;;;;19.70;75.10;;;;;;4188406;28;19936;-47
2023/07/26 03:41:20;;;;;;;;;;;19.70;75.10;;;;;;4175826;28;19993;-48
2023/07/26 03:44:01;;;;;;;;;;;19.70;75.20;;;;;;4188018;28;19935;-46
2023/07/26 03:46:42;;;;;;;;;;;19.70;76.00;;;;;;4171248;28;19936;-47
2023/07/26 03:49:25;;;;;;;;;;;19.70;75.20;;;;;;4187261;28;19977;-46
2023/07/26 03:52:07;;;;;;;;;;;19.60;75.10;;;;;;4160235;28;19959;-46
2023/07/26 03:54:48;;;;;;;;;;;19.70;75.20;;;;;;4159240;28;19932;-50
2023/07/26 03:57:29;;;;;;;;;;;19.60;76.00;;;;;;4170455;28;19935;-47
2023/07/26 04:00:10;;;;;;;;;;;19.60;75.20;;;;;;4181567;28;19932;-52
2023/07/26 04:02:54;;;;;;;;;;;19.60;75.20;;;;;;4167734;28;19936;-54
2023/07/26 04:05:37;;;;;;;;;;;19.60;75.20;;;;;;4170542;28;19964;-52
2023/07/26 04:08:17;;;;;;;;;;;19.60;75.20;;;;;;4171213;28;19932;-47
2023/07/26 04:11:02;;;;;;;;;;;19.60;75.30;;;;;;4170307;28;20098;-51
2023/07/26 04:13:43;;;;;;;;;;;19.60;75.30;;;;;;4170921;28;19949;-50
2023/07/26 04:16:24;;;;;;;;;;;19.60;75.30;;;;;;4170907;28;19994;-47
2023/07/26 04:19:05;;;;;;;;;;;19.60;76.20;;;;;;4175694;28;19932;-47
2023/07/26 04:21:47;;;;;;;;;;;19.60;75.30;;;;;;4154639;28;20570;-51
2023/07/26 04:24:28;;;;;;;;;;;19.60;75.40;;;;;;4154310;28;19990;-49
2023/07/26 04:27:09;;;;;;;;;;;19.60;76.30;;;;;;4154318;28;20059;-48
2023/07/26 04:29:50;;;;;;;;;;;19.60;75.40;;;;;;4155352;28;19936;-49
2023/07/26 04:32:31;;;;;;;;;;;19.60;75.40;;;;;;4169526;28;19947;-50
2023/07/26 04:35:11;;;;;;;;;;;19.50;75.50;;;;;;4160480;28;19935;-48
2023/07/26 04:37:54;;;;;;;;;;;19.50;75.50;;;;;;4187827;28;20047;-47
2023/07/26 04:40:37;;;;;;;;;;;19.50;75.50;;;;;;4187424;28;19935;-48
2023/07/26 04:43:19;;;;;;;;;;;19.50;75.60;;;;;;4187929;28;19935;-47
2023/07/26 04:46:00;;;;;;;;;;;19.60;75.60;;;;;;4170406;28;19943;-46
2023/07/26 04:48:41;;;;;;;;;;;19.50;75.60;;;;;;4153800;28;19961;-48
2023/07/26 04:51:23;;;;;;;;;;;19.50;76.50;;;;;;4163476;28;19932;-46
2023/07/26 04:54:06;;;;;;;;;;;19.50;75.70;;;;;;4158661;28;19932;-44
2023/07/26 04:56:46;;;;;;;;;;;19.50;75.70;;;;;;4154690;28;19936;-48
2023/07/26 04:59:27;;;;;;;;;;;19.60;75.70;;;;;;4154290;28;20287;-52
2023/07/26 05:02:07;;;;;;;;;;;19.60;75.80;;;;;;4169886;28;20299;-57
2023/07/26 05:04:48;;;;;;;;;;;19.60;75.80;;;;;;4170488;28;20005;-55
2023/07/26 05:07:29;;;;;;;;;;;19.60;76.00;;;;;;4164358;28;19935;-55
2023/07/26 05:10:11;;;;;;;;;;;19.60;76.80;;;;;;4170140;28;19944;-52
2023/07/26 05:12:52;;;;;;;;;;;19.60;75.80;;;;;;4154861;28;19936;-55
2023/07/26 05:15:33;;;;;;;;;;;19.70;75.70;;;;;;4187028;28;20252;-54
2023/07/26 05:18:14;;;;;;;;;;;19.60;76.50;;;;;;4176276;28;20067;-53
2023/07/26 05:20:55;;;;;;;;;;;19.70;75.60;;;;;;4140822;28;20288;-53
2023/07/26 05:23:35;;;;;;;;;;;19.70;75.60;;;;;;4163750;28;20014;-50
2023/07/26 05:26:17;;;;;;;;;;;19.70;75.40;;;;;;4168003;28;20244;-44
2023/07/26 05:28:58;;;;;;;;;;;19.70;75.40;;;;;;4168500;28;20236;-46
2023/07/26 05:31:38;;;;;;;;;;;19.80;75.50;;;;;;4168141;28;19931;-47
2023/07/26 05:34:19;;;;;;;;;;;19.80;75.50;;;;;;4157948;28;20066;-44
2023/07/26 05:37:03;;;;;;;;;;;19.80;75.20;;;;;;4154134;28;20453;-45
2023/07/26 05:39:43;;;;;;;;;;;19.90;75.10;;;;;;4141753;28;19944;-47
2023/07/26 05:42:26;;;;;;;;;;;19.90;75.90;;;;;;4143724;28;20417;-45
2023/07/26 05:45:07;;;;;;;;;;;19.80;75.10;;;;;;4161941;28;20054;-47
2023/07/26 05:47:48;;;;;;;;;;;19.90;75.20;;;;;;4156362;28;20287;-55
2023/07/26 05:50:29;;;;;;;;;;;19.80;75.30;;;;;;4156475;28;19936;-51
2023/07/26 05:53:10;;;;;;;;;;;19.80;75.30;;;;;;4173142;28;20021;-55
2023/07/26 05:55:50;;;;;;;;;;;19.80;75.30;;;;;;4173369;28;20325;-54
2023/07/26 05:58:32;;;;;;;;;;;19.80;75.30;;;;;;4173314;28;19935;-54
2023/07/26 06:01:13;;;;;;;;;;;19.80;75.20;;;;;;4172384;28;20398;-53
2023/07/26 06:03:54;;;;;;;;;;;19.70;75.10;;;;;;4173190;28;20400;-55
2023/07/26 06:06:35;;;;;;;;;;;19.70;75.20;;;;;;4147867;28;19932;-54
2023/07/26 06:09:16;;;;;;;;;;;19.70;76.20;;;;;;4199917;28;20005;-54
2023/07/26 06:11:57;;;;;;;;;;;19.70;75.40;;;;;;4190254;28;19966;-55
2023/07/26 06:14:39;;;;;;;;;;;19.70;75.60;;;;;;4190174;28;20039;-55
2023/07/26 06:17:19;;;;;;;;;;;19.70;75.70;;;;;;4190340;28;20322;-55
2023/07/26 06:20:00;;;;;;;;;;;19.70;75.90;;;;;;4174343;28;20358;-55
2023/07/26 06:22:41;;;;;;;;;;;19.70;76.00;;;;;;4154356;28;19971;-43
2023/07/26 06:25:22;;;;;;;;;;;19.70;76.90;;;;;;4153952;28;20374;-52
2023/07/26 06:28:03;;;;;;;;;;;19.70;76.20;;;;;;4171367;28;19936;-45
2023/07/26 06:30:45;;;;;;;;;;;19.70;76.60;;;;;;4167217;28;20267;-47
2023/07/26 06:33:26;;;;;;;;;;;19.70;76.70;;;;;;4164458;28;20026;-46
2023/07/26 06:36:07;;;;;;;;;;;19.70;76.60;;;;;;4172315;28;19932;-43
2023/07/26 06:38:48;;;;;;;;;;;19.70;76.60;;;;;;4143556;28;19932;-50
2023/07/26 06:41:29;;;;;;;;;;;19.70;76.50;;;;;;4156434;28;20276;-47
2023/07/26 06:44:11;;;;;;;;;;;19.70;77.30;;;;;;4145145;28;19936;-50
2023/07/26 06:46:53;;;;;;;;;;;19.70;76.30;;;;;;4172022;28;19933;-47
2023/07/26 06:49:34;;;;;;;;;;;19.60;76.20;;;;;;4155734;28;19936;-46
2023/07/26 06:52:15;;;;;;;;;;;19.70;76.20;;;;;;4170955;28;19935;-50
2023/07/26 06:54:56;;;;;;;;;;;19.80;76.10;;;;;;4172543;28;19932;-50
2023/07/26 06:57:36;;;;;;;;;;;19.80;75.90;;;;;;4172261;28;20030;-50
2023/07/26 07:00:18;;;;;;;;;;;19.90;75.80;;;;;;4170215;28;19972;-46
2023/07/26 07:03:01;;;;;;;;;;;19.90;75.40;;;;;;4171649;28;20039;-46
2023/07/26 07:05:42;;;;;;;;;;;20.00;75.10;;;;;;4188592;28;20287;-54
2023/07/26 07:08:24;;;;;;;;;;;20.00;74.70;;;;;;4189185;28;19936;-54
2023/07/26 07:11:05;;;;;;;;;;;20.10;74.40;;;;;;4188543;28;19934;-55
2023/07/26 07:13:45;;;;;;;;;;;20.20;74.10;;;;;;4188325;28;20271;-52
2023/07/26 07:16:26;;;;;;;;;;;20.20;74.60;;;;;;4182421;28;19983;-51
2023/07/26 07:19:09;;;;;;;;;;;20.20;73.40;;;;;;4172183;28;19969;-54
2023/07/26 07:21:49;;;;;;;;;;;20.20;73.20;;;;;;4188628;28;19935;-54
2023/07/26 07:24:30;;;;;;;;;;;20.30;73.10;;;;;;4173067;28;19935;-54
2023/07/26 07:27:11;;;;;;;;;;;20.30;73.10;;;;;;4178744;28;19935;-53
2023/07/26 07:29:51;;;;;;;;;;;20.30;73.10;;;;;;4155111;28;19979;-56
2023/07/26 07:32:32;;;;;;;;;;;20.30;73.10;;;;;;4165120;28;19932;-55
2023/07/26 07:35:14;;;;;;;;;;;20.40;72.90;;;;;;4179198;28;19939;-56
2023/07/26 07:37:55;;;;;;;;;;;20.40;72.50;;;;;;4157670;28;20161;-56
2023/07/26 07:40:37;;;;;;;;;;;20.50;72.30;;;;;;4145019;28;19936;-54
2023/07/26 07:43:18;;;;;;;;;;;20.50;71.90;;;;;;4140225;28;20403;-47
2023/07/26 07:45:59;;;;;;;;;;;20.60;71.80;;;;;;4151389;28;20395;-51
2023/07/26 07:48:41;;;;;;;;;;;20.60;71.50;;;;;;4143836;28;20018;-51
2023/07/26 07:51:23;;;;;;;;;;;20.60;72.10;;;;;;4144774;28;20348;-48
2023/07/26 07:54:04;;;;;;;;;;;20.60;71.30;;;;;;4159066;28;20022;-45
2023/07/26 07:56:45;;;;;;;;;;;20.60;71.20;;;;;;4171761;28;19982;-47
2023/07/26 07:59:26;;;;;;;;;;;20.60;71.30;;;;;;4170257;28;19932;-47
2023/07/26 08:02:07;;;;;;;;;;;20.70;71.40;;;;;;4155379;28;19936;-49
2023/07/26 08:04:50;;;;;;;;;;;20.60;71.40;;;;;;4143947;28;19951;-49
2023/07/26 08:07:32;;;;;;;;;;;20.70;71.30;;;;;;4144376;28;19987;-51
2023/07/26 08:10:13;;;;;;;;;;;20.70;71.20;;;;;;4136065;28;19932;-47
2023/07/26 08:12:54;;;;;;;;;;;20.70;70.90;;;;;;4169417;28;19988;-52
2023/07/26 08:15:38;;;;;;;;;;;20.70;70.60;;;;;;4154298;28;19944;-47
2023/07/26 08:18:19;;;;;;;;;;;20.70;70.40;;;;;;4155502;28;19935;-46
2023/07/26 08:21:02;;;;;;;;;;;20.70;70.10;;;;;;4165011;28;19987;-45
2023/07/26 08:23:44;;;;;;;;;;;20.70;69.70;;;;;;4150697;28;20059;-46
2023/07/26 08:26:25;;;;;;;;;;;20.70;69.30;;;;;;4169830;28;20106;-47
2023/07/26 08:29:06;;;;;;;;;;;20.70;69.10;;;;;;4171385;28;19981;-46
2023/07/26 08:31:47;;;;;;;;;;;20.70;68.90;;;;;;4155270;28;20063;-46
2023/07/26 08:34:28;;;;;;;;;;;20.70;68.90;;;;;;4170071;28;19977;-49
2023/07/26 08:37:09;;;;;;;;;;;20.70;69.00;;;;;;4149997;28;20391;-49
2023/07/26 08:39:51;;;;;;;;;;;20.70;68.90;;;;;;4157350;28;19975;-49
2023/07/26 08:42:33;;;;;;;;;;;20.70;68.70;;;;;;4170503;28;20089;-50
2023/07/26 08:45:15;;;;;;;;;;;20.70;68.60;;;;;;4161346;28;19936;-49
2023/07/26 08:47:56;;;;;;;;;;;20.70;68.60;;;;;;4152775;28;19990;-48
2023/07/26 08:50:39;;;;;;;;;;;20.70;68.60;;;;;;4167188;28;20093;-52
2023/07/26 08:53:20;;;;;;;;;;;20.70;69.60;;;;;;4119508;28;19978;-49
2023/07/26 08:56:03;;;;;;;;;;;20.80;68.70;;;;;;4162207;28;19936;-48
2023/07/26 08:58:44;;;;;;;;;;;20.70;68.40;;;;;;4171614;28;20028;-51
2023/07/26 09:01:25;;;;;;;;;;;20.70;68.10;;;;;;4187193;28;19931;-50
2023/07/26 09:04:06;;;;;;;;;;;20.80;68.00;;;;;;4158747;28;19936;-50
2023/07/26 09:06:48;;;;;;;;;;;20.80;68.10;;;;;;4187592;28;19935;-49
2023/07/26 09:09:29;;;;;;;;;;;20.70;68.10;;;;;;4164885;28;19974;-48
2023/07/26 09:12:23;;;;;;;;;;;20.80;68.20;;;;;;4167090;28;19935;-51
2023/07/26 09:15:05;;;;;;;;;;;20.70;68.00;;;;;;4152578;28;19935;-52
2023/07/26 09:17:49;;;;;;;;;;;20.70;68.80;;;;;;4154188;28;20398;-52
2023/07/26 09:20:31;;;;;;;;;;;20.80;67.80;;;;;;4151850;28;19978;-48
2023/07/26 09:23:13;;;;;;;;;;;20.80;67.90;;;;;;4168250;28;20062;-48
2023/07/26 09:25:55;;;;;;;;;;;20.80;67.90;;;;;;4169690;28;20093;-48
2023/07/26 09:28:36;;;;;;;;;;;20.70;68.00;;;;;;4169407;28;19932;-45
2023/07/26 09:31:29;;;;;;;;;;;20.80;68.00;;;;;;4170795;28;20054;-46
2023/07/26 09:34:12;;;;;;;;;;;20.80;68.10;;;;;;4166399;28;20371;-47
2023/07/26 09:36:54;;;;;;;;;;;20.80;68.20;;;;;;4148832;28;19932;-47
2023/07/26 09:39:45;;;;;;;;;;;20.80;68.20;;;;;;4163355;28;20062;-49
2023/07/26 09:42:25;;;;;;;;;;;20.80;68.20;;;;;;4166176;28;20403;-44
2023/07/26 09:45:16;;;;;;;;;;;20.80;68.30;;;;;;4155879;28;20087;-49
2023/07/26 09:48:05;;;;;;;;;;;20.90;68.40;;;;;;4151973;28;20014;-49
2023/07/26 09:50:48;;;;;;;;;;;20.90;68.40;;;;;;4156481;28;20292;-49
2023/07/26 09:53:35;;;;;;;;;;;20.90;68.30;;;;;;4137835;28;19936;-45
2023/07/26 09:56:15;;;;;;;;;;;20.90;68.20;;;;;;4153601;28;19978;-56
2023/07/26 09:58:57;;;;;;;;;;;20.90;68.80;;;;;;4167423;28;19931;-56
2023/07/26 10:01:43;;;;;;;;;;;20.90;67.80;;;;;;4145093;28;19944;-54
2023/07/26 10:04:28;;;;;;;;;;;21.00;68.00;;;;;;4186118;28;20464;-53
2023/07/26 10:07:10;;;;;;;;;;;21.00;68.00;;;;;;4186167;28;19998;-50
2023/07/26 10:09:51;;;;;;;;;;;21.10;67.90;;;;;;4187269;28;19971;-52
2023/07/26 10:12:33;;;;;;;;;;;21.10;67.60;;;;;;4175450;28;19936;-49
2023/07/26 10:15:16;;;;;;;;;;;21.10;67.50;;;;;;4169388;28;20603;-48
2023/07/26 10:18:00;;;;;;;;;;;21.10;67.30;;;;;;4155314;28;19936;-49
2023/07/26 10:20:42;;;;;;;;;;;21.20;67.10;;;;;;4143124;28;20452;-49
2023/07/26 10:23:24;;;;;;;;;;;21.20;67.90;;;;;;4162018;28;20062;-42
2023/07/26 10:26:07;;;;;;;;;;;21.20;66.70;;;;;;4152920;28;19935;-47
2023/07/26 10:28:48;;;;;;;;;;;21.20;66.40;;;;;;4170987;28;19936;-45
2023/07/26 10:31:29;;;;;;;;;;;21.30;67.10;;;;;;4172856;28;19969;-45
2023/07/26 10:34:19;;;;;;;;;;;21.20;65.90;;;;;;4173118;28;20695;-44
2023/07/26 10:36:59;;;;;;;;;;;21.20;66.50;;;;;;4188524;28;19935;-42
2023/07/26 10:39:41;;;;;;;;;;;21.10;67.10;;;;;;4187699;28;19936;-45
2023/07/26 10:42:23;;;;;;;;;;;21.10;67.70;;;;;;4164925;28;19966;-48
2023/07/26 10:45:05;;;;;;;;;;;21.10;68.00;;;;;;4186937;28;19935;-44
2023/07/26 10:47:50;;;;;;;;;;;21.10;68.30;;;;;;4181996;28;19940;-54
2023/07/26 10:50:32;;;;;;;;;;;21.10;68.70;;;;;;4155371;28;19948;-49
2023/07/26 10:53:27;;;;;;;;;;;21.10;69.00;;;;;;4160854;28;19931;-52
2023/07/26 10:56:08;;;;;;;;;;;21.10;69.40;;;;;;4170035;28;19944;-48
2023/07/26 10:58:51;;;;;;;;;;;21.10;69.50;;;;;;4160934;28;19974;-49
2023/07/26 11:01:33;;;;;;;;;;;21.10;69.60;;;;;;4171576;28;19979;-49
2023/07/26 11:04:15;;;;;;;;;;;21.10;69.70;;;;;;4172562;28;20017;-53
2023/07/26 11:06:58;;;;;;;;;;;21.10;69.70;;;;;;4171648;28;19931;-51
2023/07/26 11:09:39;;;;;;;;;;;21.10;69.70;;;;;;4172199;28;19935;-47
2023/07/26 11:12:24;;;;;;;;;;;21.10;69.40;;;;;;4172559;28;19975;-43
2023/07/26 11:15:05;;;;;;;;;;;21.10;69.10;;;;;;4172406;28;19935;-44
2023/07/26 11:18:06;;;;;;;;;;;21.20;69.10;;;;;;4171533;28;19981;-42
2023/07/26 11:20:48;;;;;;;;;;;21.10;68.80;;;;;;4140851;28;19983;-44
2023/07/26 11:23:30;;;;;;;;;;;21.10;68.80;;;;;;4156129;28;19932;-50
2023/07/26 11:26:12;;;;;;;;;;;21.10;68.50;;;;;;4155858;28;20292;-53
2023/07/26 11:28:53;;;;;;;;;;;21.00;68.80;;;;;;4159690;28;20078;-48
2023/07/26 11:31:33;;;;;;;;;;;21.00;69.40;;;;;;4170950;28;20288;-50
2023/07/26 11:34:15;;;;;;;;;;;20.90;71.00;;;;;;4172022;28;20036;-51
2023/07/26 11:37:05;;;;;;;;;;;20.90;70.50;;;;;;4172047;28;19958;-50
2023/07/26 11:39:48;;;;;;;;;;;20.80;70.80;;;;;;4170400;28;20078;-49
2023/07/26 11:42:29;;;;;;;;;;;20.80;71.20;;;;;;4172513;28;19932;-49
2023/07/26 11:45:10;;;;;;;;;;;20.80;72.30;;;;;;4158353;28;19940;-47
2023/07/26 11:47:51;;;;;;;;;;;20.70;71.80;;;;;;4157743;28;19932;-49
2023/07/26 11:50:32;;;;;;;;;;;20.70;72.00;;;;;;4163303;28;19951;-48
2023/07/26 11:53:14;;;;;;;;;;;20.70;73.20;;;;;;4170998;28;19936;-48
2023/07/26 11:56:02;;;;;;;;;;;20.70;72.60;;;;;;4172374;28;19936;-48
2023/07/26 11:58:43;;;;;;;;;;;20.60;72.80;;;;;;4167419;28;20403;-47
2023/07/26 12:01:25;;;;;;;;;;;20.60;73.00;;;;;;4169109;28;19951;-50
2023/07/26 12:04:12;;;;;;;;;;;20.60;73.10;;;;;;4176316;28;19936;-41
2023/07/26 12:06:53;;;;;;;;;;;20.60;74.00;;;;;;4164403;28;20446;-42
2023/07/26 12:09:44;;;;;;;;;;;20.60;73.10;;;;;;4155032;28;19951;-47
2023/07/26 12:12:26;;;;;;;;;;;20.60;72.90;;;;;;4164251;28;20932;-43
2023/07/26 12:15:08;;;;;;;;;;;20.60;73.90;;;;;;4171887;28;20409;-45
2023/07/26 12:17:56;;;;;;;;;;;20.60;72.80;;;;;;4138960;28;20372;-46
2023/07/26 12:20:37;;;;;;;;;;;20.50;72.60;;;;;;4155303;28;20070;-43
2023/07/26 12:23:19;;;;;;;;;;;20.60;72.50;;;;;;4160998;28;19974;-43
2023/07/26 12:26:01;;;;;;;;;;;20.60;72.50;;;;;;4165444;28;19936;-44
2023/07/26 12:28:44;;;;;;;;;;;20.60;73.40;;;;;;4185522;28;20081;-47
2023/07/26 12:31:26;;;;;;;;;;;20.60;72.60;;;;;;4182098;28;19931;-44
2023/07/26 12:34:08;;;;;;;;;;;20.60;72.60;;;;;;4168927;28;19932;-45
2023/07/26 12:36:50;;;;;;;;;;;20.60;72.80;;;;;;4171213;28;19932;-45
2023/07/26 12:39:31;;;;;;;;;;;20.60;72.90;;;;;;4180644;28;19935;-50
2023/07/26 12:42:12;;;;;;;;;;;20.60;74.40;;;;;;4171679;28;19931;-48
2023/07/26 12:44:54;;;;;;;;;;;20.70;74.00;;;;;;4173035;28;19936;-43
2023/07/26 12:47:35;;;;;;;;;;;20.70;74.00;;;;;;4186563;28;20391;-45
2023/07/26 12:50:16;;;;;;;;;;;20.70;74.60;;;;;;4187784;28;20331;-47
2023/07/26 12:52:56;;;;;;;;;;;20.80;73.50;;;;;;4187343;28;20058;-46
2023/07/26 12:55:37;;;;;;;;;;;20.80;73.50;;;;;;4182001;28;19932;-45
2023/07/26 12:58:18;;;;;;;;;;;20.90;73.60;;;;;;4187940;28;19931;-44
2023/07/26 13:01:01;;;;;;;;;;;20.90;73.90;;;;;;4166881;28;19943;-41
2023/07/26 13:03:41;;;;;;;;;;;20.90;74.10;;;;;;4172638;28;19932;-42
2023/07/26 13:06:22;;;;;;;;;;;20.90;74.30;;;;;;4169601;28;20337;-49
2023/07/26 13:09:03;;;;;;;;;;;20.90;74.10;;;;;;4171505;28;19932;-47
2023/07/26 13:11:44;;;;;;;;;;;20.90;73.90;;;;;;4170713;28;19936;-49
2023/07/26 13:14:25;;;;;;;;;;;21.00;73.90;;;;;;4170536;28;20445;-53
2023/07/26 13:17:08;;;;;;;;;;;21.00;73.80;;;;;;4164615;28;19932;-46
2023/07/26 13:19:49;;;;;;;;;;;21.00;74.00;;;;;;4157766;28;19936;-44
2023/07/26 13:22:30;;;;;;;;;;;21.00;74.20;;;;;;4170598;28;19948;-41
2023/07/26 13:25:11;;;;;;;;;;;21.00;74.20;;;;;;4170604;28;19959;-45
2023/07/26 13:27:51;;;;;;;;;;;21.00;74.10;;;;;;4187472;28;19936;-44
2023/07/26 13:30:33;;;;;;;;;;;21.00;74.10;;;;;;4187381;28;19931;-46
2023/07/26 13:33:15;;;;;;;;;;;21.00;74.00;;;;;;4182253;28;19931;-45
2023/07/26 13:35:56;;;;;;;;;;;21.00;74.00;;;;;;4154254;28;19995;-42
2023/07/26 13:38:37;;;;;;;;;;;21.00;73.90;;;;;;4153690;28;20344;-49
2023/07/26 13:41:18;;;;;;;;;;;21.00;73.90;;;;;;4137303;28;20288;-46
2023/07/26 13:43:59;;;;;;;;;;;21.10;73.90;;;;;;4160894;28;19931;-46
2023/07/26 13:46:39;;;;;;;;;;;21.10;73.80;;;;;;4158225;28;19972;-44
2023/07/26 13:49:22;;;;;;;;;;;21.10;73.80;;;;;;4141369;28;20135;-47
2023/07/26 13:52:03;;;;;;;;;;;21.10;73.80;;;;;;4170708;28;19936;-47
2023/07/26 13:54:44;;;;;;;;;;;21.10;73.90;;;;;;4154093;28;20083;-47
2023/07/26 13:57:26;;;;;;;;;;;21.10;75.10;;;;;;4155951;28;19963;-44
2023/07/26 14:00:07;;;;;;;;;;;21.10;74.10;;;;;;4181985;28;21976;-43
2023/07/26 14:02:53;;;;;;;;;;;21.10;73.70;;;;;;4172143;28;19951;-42
2023/07/26 14:05:36;;;;;;;;;;;21.10;73.60;;;;;;4187211;28;19970;-52
2023/07/26 14:08:17;;;;;;;;;;;21.10;73.20;;;;;;4172058;28;20303;-43
2023/07/26 14:10:58;;;;;;;;;;;21.20;74.20;;;;;;4150078;28;19936;-43
2023/07/26 14:13:40;;;;;;;;;;;21.20;73.30;;;;;;4141718;28;19932;-43
2023/07/26 14:16:21;;;;;;;;;;;21.20;73.10;;;;;;4161016;28;19982;-43
2023/07/26 14:19:02;;;;;;;;;;;21.30;72.80;;;;;;4169647;28;19940;-44
2023/07/26 14:21:45;;;;;;;;;;;21.30;72.70;;;;;;4173503;28;19952;-48
2023/07/26 14:24:26;;;;;;;;;;;21.30;72.40;;;;;;4173393;28;19932;-45
2023/07/26 14:27:07;;;;;;;;;;;21.30;71.20;;;;;;4161291;28;19933;-51
2023/07/26 14:29:48;;;;;;;;;;;21.40;71.40;;;;;;4159485;28;19936;-50
2023/07/26 14:32:29;;;;;;;;;;;21.40;71.50;;;;;;4173007;28;19932;-50
2023/07/26 14:35:10;;;;;;;;;;;21.40;71.40;;;;;;4161994;28;19936;-50
2023/07/26 14:37:52;;;;;;;;;;;21.50;72.00;;;;;;4173171;28;19935;-52
2023/07/26 14:40:33;;;;;;;;;;;21.50;70.60;;;;;;4172976;28;19936;-51
2023/07/26 14:43:13;;;;;;;;;;;21.50;70.00;;;;;;4156948;28;19971;-49
2023/07/26 14:45:54;;;;;;;;;;;21.60;69.70;;;;;;4156794;28;20013;-48
2023/07/26 14:48:35;;;;;;;;;;;21.60;69.70;;;;;;4161960;28;19936;-49
2023/07/26 14:51:15;;;;;;;;;;;21.60;69.20;;;;;;4189599;28;19948;-54
2023/07/26 14:53:58;;;;;;;;;;;21.60;69.00;;;;;;4151721;28;20367;-52
2023/07/26 14:56:39;;;;;;;;;;;21.60;68.40;;;;;;4156951;28;19932;-54
2023/07/26 14:59:19;;;;;;;;;;;21.60;68.10;;;;;;4172249;28;19935;-53
2023/07/26 15:02:01;;;;;;;;;;;21.60;68.90;;;;;;4170313;28;20704;-53
2023/07/26 15:04:42;;;;;;;;;;;21.60;67.40;;;;;;4170117;28;19932;-50
2023/07/26 15:07:23;;;;;;;;;;;21.60;67.60;;;;;;4156428;28;19932;-49
2023/07/26 15:10:06;;;;;;;;;;;21.50;67.50;;;;;;4154800;28;20006;-53
2023/07/26 15:12:47;;;;;;;;;;;21.50;67.40;;;;;;4161876;28;20022;-54
2023/07/26 15:15:27;;;;;;;;;;;21.50;67.60;;;;;;4166875;28;19982;-57
2023/07/26 15:18:08;;;;;;;;;;;21.50;67.80;;;;;;4171306;28;19936;-55
2023/07/26 15:20:49;;;;;;;;;;;21.50;67.20;;;;;;4158865;28;19979;-55
2023/07/26 15:23:30;;;;;;;;;;;21.50;67.50;;;;;;4157607;28;20018;-55
2023/07/26 15:26:15;;;;;;;;;;;21.50;67.70;;;;;;4169993;28;20066;-54
2023/07/26 15:28:56;;;;;;;;;;;21.50;67.60;;;;;;4168970;28;19951;-53
2023/07/26 15:31:36;;;;;;;;;;;21.50;67.40;;;;;;4169351;28;20071;-55
2023/07/26 15:34:17;;;;;;;;;;;21.50;67.00;;;;;;4189179;28;19947;-55
2023/07/26 15:36:58;;;;;;;;;;;21.40;67.00;;;;;;4188969;28;19977;-55
2023/07/26 15:39:39;;;;;;;;;;;21.40;67.10;;;;;;4188712;28;19931;-55